sensor_id;sensor_type;location;lat;lon;timestamp;temperature;humidity
780;DHT22;373;49.342;8.146;2023-07-24T00:00:37;21.70;99.90
780;DHT22;373;49.342;8.146;2023-07-24T00:03:10;22.00;99.90
780;DHT22;373;49.342;8.146;2023-07-24T00:05:39;22.10;99.90
780;DHT22;373;49.342;8.146;2023-07-24T00:08:07;22.10;99.90
780;DHT22;373;49.342;8.146;2023-07-24T00:10:34;22.20;99.90
780;DHT22;373;49.342;8.146;2023-07-24T00:13:07;22.30;99.90
780;DHT22;373;49.342;8.146;2023-07-24T00:15:34;22.20;99.90
780;DHT22;373;49.342;8.146;2023-07-24T00:18:01;21.70;99.90
780;DHT22;373;49.342;8.146;2023-07-24T00:20:28;21.40;99.90
780;DHT22;373;49.342;8.146;2023-07-24T00:23:00;21.50;99.90
780;DHT22;373;49.342;8.146;2023-07-24T00:25:30;21.50;99.90
780;DHT22;373;49.342;8.146;2023-07-24T00:27:58;21.60;99.90
780;DHT22;373;49.342;8.146;2023-07-24T00:30:25;21.70;99.90
780;DHT22;373;49.342;8.146;2023-07-24T00:32:52;21.90;99.90
780;DHT22;373;49.342;8.146;2023-07-24T00:35:20;21.80;99.90
780;DHT22;373;49.342;8.146;2023-07-24T00:37:47;22.00;99.90
780;DHT22;373;49.342;8.146;2023-07-24T00:40:16;22.10;99.90
780;DHT22;373;49.342;8.146;2023-07-24T00:42:46;21.90;99.90
780;DHT22;373;49.342;8.146;2023-07-24T00:45:14;21.60;99.90
780;DHT22;373;49.342;8.146;2023-07-24T00:47:43;21.30;99.90
780;DHT22;373;49.342;8.146;2023-07-24T00:50:11;21.30;99.90
780;DHT22;373;49.342;8.146;2023-07-24T00:52:42;21.30;99.90
780;DHT22;373;49.342;8.146;2023-07-24T00:55:13;21.10;99.90
780;DHT22;373;49.342;8.146;2023-07-24T00:57:43;21.00;1.00
780;DHT22;373;49.342;8.146;2023-07-24T01:00:16;21.00;1.00
780;DHT22;373;49.342;8.146;2023-07-24T01:02:44;21.00;1.00
780;DHT22;373;49.342;8.146;2023-07-24T01:05:14;21.00;1.00
780;DHT22;373;49.342;8.146;2023-07-24T01:07:42;20.90;1.00
780;DHT22;373;49.342;8.146;2023-07-24T01:10:10;20.90;1.00
780;DHT22;373;49.342;8.146;2023-07-24T01:12:43;20.90;1.00
780;DHT22;373;49.342;8.146;2023-07-24T01:15:16;21.00;99.90
780;DHT22;373;49.342;8.146;2023-07-24T01:17:50;20.60;1.00
780;DHT22;373;49.342;8.146;2023-07-24T01:20:19;20.20;1.00
780;DHT22;373;49.342;8.146;2023-07-24T01:22:57;20.50;1.00
780;DHT22;373;49.342;8.146;2023-07-24T01:25:32;20.70;1.00
780;DHT22;373;49.342;8.146;2023-07-24T01:28:06;20.60;1.00
780;DHT22;373;49.342;8.146;2023-07-24T01:30:34;20.80;1.00
780;DHT22;373;49.342;8.146;2023-07-24T01:33:01;20.90;1.00
780;DHT22;373;49.342;8.146;2023-07-24T01:35:49;21.10;1.00
780;DHT22;373;49.342;8.146;2023-07-24T01:38:17;21.50;99.90
780;DHT22;373;49.342;8.146;2023-07-24T01:40:45;21.50;99.90
780;DHT22;373;49.342;8.146;2023-07-24T01:43:14;21.60;99.90
780;DHT22;373;49.342;8.146;2023-07-24T01:45:42;21.80;99.90
780;DHT22;373;49.342;8.146;2023-07-24T01:48:09;21.80;99.90
780;DHT22;373;49.342;8.146;2023-07-24T01:50:36;22.00;99.90
780;DHT22;373;49.342;8.146;2023-07-24T01:53:03;22.30;99.90
780;DHT22;373;49.342;8.146;2023-07-24T01:55:33;22.50;99.90
780;DHT22;373;49.342;8.146;2023-07-24T01:58:00;22.40;99.90
780;DHT22;373;49.342;8.146;2023-07-24T02:00:29;22.10;99.90
780;DHT22;373;49.342;8.146;2023-07-24T02:02:59;22.10;99.90
780;DHT22;373;49.342;8.146;2023-07-24T02:05:31;22.40;99.90
780;DHT22;373;49.342;8.146;2023-07-24T02:07:58;22.30;99.90
780;DHT22;373;49.342;8.146;2023-07-24T02:10:26;22.10;99.90
780;DHT22;373;49.342;8.146;2023-07-24T02:12:53;22.10;99.90
780;DHT22;373;49.342;8.146;2023-07-24T02:15:24;22.20;99.90
780;DHT22;373;49.342;8.146;2023-07-24T02:17:53;22.20;99.90
780;DHT22;373;49.342;8.146;2023-07-24T02:20:20;21.90;99.90
780;DHT22;373;49.342;8.146;2023-07-24T02:22:50;21.40;99.90
780;DHT22;373;49.342;8.146;2023-07-24T02:25:18;21.70;99.90
780;DHT22;373;49.342;8.146;2023-07-24T02:27:45;21.80;99.90
780;DHT22;373;49.342;8.146;2023-07-24T02:30:12;21.80;99.90
780;DHT22;373;49.342;8.146;2023-07-24T02:32:40;21.40;99.90
780;DHT22;373;49.342;8.146;2023-07-24T02:35:11;21.10;1.00
780;DHT22;373;49.342;8.146;2023-07-24T02:37:39;20.90;1.00
780;DHT22;373;49.342;8.146;2023-07-24T02:40:07;20.70;1.00
780;DHT22;373;49.342;8.146;2023-07-24T02:42:34;20.60;1.00
780;DHT22;373;49.342;8.146;2023-07-24T02:45:02;20.60;1.00
780;DHT22;373;49.342;8.146;2023-07-24T02:47:29;20.80;1.00
780;DHT22;373;49.342;8.146;2023-07-24T02:49:57;21.00;1.00
780;DHT22;373;49.342;8.146;2023-07-24T02:52:25;20.50;1.00
780;DHT22;373;49.342;8.146;2023-07-24T02:54:55;20.40;37.20
780;DHT22;373;49.342;8.146;2023-07-24T02:57:23;20.40;99.90
780;DHT22;373;49.342;8.146;2023-07-24T02:59:50;20.30;99.90
780;DHT22;373;49.342;8.146;2023-07-24T03:02:18;20.00;1.00
780;DHT22;373;49.342;8.146;2023-07-24T03:04:47;19.90;1.00
780;DHT22;373;49.342;8.146;2023-07-24T03:07:14;20.20;1.00
780;DHT22;373;49.342;8.146;2023-07-24T03:09:43;19.80;4.20
780;DHT22;373;49.342;8.146;2023-07-24T03:12:10;19.60;1.00
780;DHT22;373;49.342;8.146;2023-07-24T03:14:39;19.70;1.00
780;DHT22;373;49.342;8.146;2023-07-24T03:17:07;20.10;1.00
780;DHT22;373;49.342;8.146;2023-07-24T03:19:34;20.60;99.90
780;DHT22;373;49.342;8.146;2023-07-24T03:22:04;20.90;4.50
780;DHT22;373;49.342;8.146;2023-07-24T03:24:34;21.20;1.00
780;DHT22;373;49.342;8.146;2023-07-24T03:27:03;21.30;1.00
780;DHT22;373;49.342;8.146;2023-07-24T03:29:29;21.10;1.00
780;DHT22;373;49.342;8.146;2023-07-24T03:32:00;21.30;1.00
780;DHT22;373;49.342;8.146;2023-07-24T03:34:31;21.50;1.00
780;DHT22;373;49.342;8.146;2023-07-24T03:37:02;21.70;1.00
780;DHT22;373;49.342;8.146;2023-07-24T03:39:30;21.70;1.00
780;DHT22;373;49.342;8.146;2023-07-24T03:41:57;21.60;1.00
780;DHT22;373;49.342;8.146;2023-07-24T03:44:27;21.70;1.00
780;DHT22;373;49.342;8.146;2023-07-24T03:46:54;21.80;1.00
780;DHT22;373;49.342;8.146;2023-07-24T03:49:21;21.80;1.00
780;DHT22;373;49.342;8.146;2023-07-24T03:51:49;21.70;1.00
780;DHT22;373;49.342;8.146;2023-07-24T03:54:16;21.60;1.00
780;DHT22;373;49.342;8.146;2023-07-24T03:56:44;21.80;1.00
780;DHT22;373;49.342;8.146;2023-07-24T03:59:11;21.80;1.00
780;DHT22;373;49.342;8.146;2023-07-24T04:01:40;22.00;99.90
780;DHT22;373;49.342;8.146;2023-07-24T04:04:07;22.10;99.90
780;DHT22;373;49.342;8.146;2023-07-24T04:06:34;22.20;99.90
780;DHT22;373;49.342;8.146;2023-07-24T04:09:01;22.20;99.90
780;DHT22;373;49.342;8.146;2023-07-24T04:11:29;22.20;99.90
780;DHT22;373;49.342;8.146;2023-07-24T04:13:56;22.30;99.90
780;DHT22;373;49.342;8.146;2023-07-24T04:16:29;22.30;99.90
780;DHT22;373;49.342;8.146;2023-07-24T04:18:57;22.40;99.90
780;DHT22;373;49.342;8.146;2023-07-24T04:21:25;22.20;99.90
780;DHT22;373;49.342;8.146;2023-07-24T04:23:52;21.60;1.00
780;DHT22;373;49.342;8.146;2023-07-24T04:26:21;21.20;1.00
780;DHT22;373;49.342;8.146;2023-07-24T04:28:49;20.80;37.80
780;DHT22;373;49.342;8.146;2023-07-24T04:31:25;21.00;90.10
780;DHT22;373;49.342;8.146;2023-07-24T04:34:04;21.30;1.00
780;DHT22;373;49.342;8.146;2023-07-24T04:36:42;21.40;1.00
780;DHT22;373;49.342;8.146;2023-07-24T04:39:12;21.50;1.00
780;DHT22;373;49.342;8.146;2023-07-24T04:41:49;21.70;1.00
780;DHT22;373;49.342;8.146;2023-07-24T04:44:23;21.60;1.00
780;DHT22;373;49.342;8.146;2023-07-24T04:47:07;21.40;1.00
780;DHT22;373;49.342;8.146;2023-07-24T04:49:40;21.40;1.00
780;DHT22;373;49.342;8.146;2023-07-24T04:52:11;21.50;1.00
780;DHT22;373;49.342;8.146;2023-07-24T04:54:38;21.70;1.00
780;DHT22;373;49.342;8.146;2023-07-24T04:57:08;21.50;1.00
780;DHT22;373;49.342;8.146;2023-07-24T04:59:36;21.30;1.00
780;DHT22;373;49.342;8.146;2023-07-24T05:02:03;21.00;64.30
780;DHT22;373;49.342;8.146;2023-07-24T05:04:31;20.70;99.90
780;DHT22;373;49.342;8.146;2023-07-24T05:06:59;20.60;99.90
780;DHT22;373;49.342;8.146;2023-07-24T05:09:28;21.00;1.00
780;DHT22;373;49.342;8.146;2023-07-24T05:11:56;21.10;99.90
780;DHT22;373;49.342;8.146;2023-07-24T05:14:23;21.30;99.90
780;DHT22;373;49.342;8.146;2023-07-24T05:16:51;21.20;99.90
780;DHT22;373;49.342;8.146;2023-07-24T05:19:23;21.10;99.90
780;DHT22;373;49.342;8.146;2023-07-24T05:21:51;20.90;99.90
780;DHT22;373;49.342;8.146;2023-07-24T05:24:20;21.10;99.90
780;DHT22;373;49.342;8.146;2023-07-24T05:26:48;21.30;99.90
780;DHT22;373;49.342;8.146;2023-07-24T05:29:15;21.30;95.20
780;DHT22;373;49.342;8.146;2023-07-24T05:31:42;21.40;79.20
780;DHT22;373;49.342;8.146;2023-07-24T05:34:13;21.70;1.00
780;DHT22;373;49.342;8.146;2023-07-24T05:36:52;21.90;1.00
780;DHT22;373;49.342;8.146;2023-07-24T05:39:29;21.90;1.00
780;DHT22;373;49.342;8.146;2023-07-24T05:42:04;22.10;1.00
780;DHT22;373;49.342;8.146;2023-07-24T05:44:35;22.20;1.00
780;DHT22;373;49.342;8.146;2023-07-24T05:47:04;22.50;1.00
780;DHT22;373;49.342;8.146;2023-07-24T05:49:31;22.50;1.00
780;DHT22;373;49.342;8.146;2023-07-24T05:57:54;22.30;1.00
780;DHT22;373;49.342;8.146;2023-07-24T06:00:21;22.10;1.00
780;DHT22;373;49.342;8.146;2023-07-24T06:02:57;21.80;23.40
780;DHT22;373;49.342;8.146;2023-07-24T06:05:24;21.50;99.90
780;DHT22;373;49.342;8.146;2023-07-24T06:07:57;21.10;99.90
780;DHT22;373;49.342;8.146;2023-07-24T06:10:24;20.80;1.00
780;DHT22;373;49.342;8.146;2023-07-24T06:13:03;20.70;1.00
780;DHT22;373;49.342;8.146;2023-07-24T06:15:30;20.60;31.20
780;DHT22;373;49.342;8.146;2023-07-24T06:17:57;20.90;91.00
780;DHT22;373;49.342;8.146;2023-07-24T06:20:30;21.00;1.00
780;DHT22;373;49.342;8.146;2023-07-24T06:22:57;21.10;99.90
780;DHT22;373;49.342;8.146;2023-07-24T06:25:24;21.30;57.80
780;DHT22;373;49.342;8.146;2023-07-24T06:28:07;21.80;99.90
780;DHT22;373;49.342;8.146;2023-07-24T06:30:46;21.80;99.90
780;DHT22;373;49.342;8.146;2023-07-24T06:33:28;21.80;99.90
780;DHT22;373;49.342;8.146;2023-07-24T06:41:41;21.70;99.90
780;DHT22;373;49.342;8.146;2023-07-24T07:13:01;22.70;99.90
780;DHT22;373;49.342;8.146;2023-07-24T07:15:41;22.70;99.90
780;DHT22;373;49.342;8.146;2023-07-24T07:18:15;22.80;99.90
780;DHT22;373;49.342;8.146;2023-07-24T07:20:55;23.30;99.90
780;DHT22;373;49.342;8.146;2023-07-24T07:23:47;23.70;10.80
780;DHT22;373;49.342;8.146;2023-07-24T07:26:16;24.20;1.00
780;DHT22;373;49.342;8.146;2023-07-24T07:28:58;24.30;1.00
780;DHT22;373;49.342;8.146;2023-07-24T07:31:38;24.50;1.00
780;DHT22;373;49.342;8.146;2023-07-24T07:34:05;24.50;1.00
780;DHT22;373;49.342;8.146;2023-07-24T07:36:41;24.60;1.00
780;DHT22;373;49.342;8.146;2023-07-24T07:39:08;24.70;1.00
780;DHT22;373;49.342;8.146;2023-07-24T07:41:46;24.90;1.00
780;DHT22;373;49.342;8.146;2023-07-24T07:44:43;24.90;1.00
780;DHT22;373;49.342;8.146;2023-07-24T07:47:11;24.70;1.00
780;DHT22;373;49.342;8.146;2023-07-24T07:50:23;24.50;1.00
780;DHT22;373;49.342;8.146;2023-07-24T07:59:19;24.30;1.00
780;DHT22;373;49.342;8.146;2023-07-24T08:02:12;24.20;1.00
780;DHT22;373;49.342;8.146;2023-07-24T08:08:18;24.40;1.00
780;DHT22;373;49.342;8.146;2023-07-24T08:11:54;24.60;1.00
780;DHT22;373;49.342;8.146;2023-07-24T08:17:47;24.30;1.00
780;DHT22;373;49.342;8.146;2023-07-24T08:20:35;24.10;1.00
780;DHT22;373;49.342;8.146;2023-07-24T08:23:03;24.10;1.00
780;DHT22;373;49.342;8.146;2023-07-24T08:25:56;23.90;1.00
780;DHT22;373;49.342;8.146;2023-07-24T08:29:21;23.80;1.00
780;DHT22;373;49.342;8.146;2023-07-24T08:32:11;23.90;1.00
780;DHT22;373;49.342;8.146;2023-07-24T08:34:49;24.30;1.00
780;DHT22;373;49.342;8.146;2023-07-24T09:54:58;25.10;99.90
780;DHT22;373;49.342;8.146;2023-07-24T09:57:35;25.30;99.90
780;DHT22;373;49.342;8.146;2023-07-24T10:00:13;25.10;99.90
780;DHT22;373;49.342;8.146;2023-07-24T10:02:40;24.70;99.90
780;DHT22;373;49.342;8.146;2023-07-24T10:05:08;24.50;99.90
780;DHT22;373;49.342;8.146;2023-07-24T10:07:44;24.50;99.90
780;DHT22;373;49.342;8.146;2023-07-24T10:10:54;24.50;99.90
780;DHT22;373;49.342;8.146;2023-07-24T10:13:42;24.30;99.90
780;DHT22;373;49.342;8.146;2023-07-24T10:16:10;24.30;99.90
780;DHT22;373;49.342;8.146;2023-07-24T10:18:54;24.20;99.90
780;DHT22;373;49.342;8.146;2023-07-24T10:21:29;24.30;99.90
780;DHT22;373;49.342;8.146;2023-07-24T10:24:04;24.40;99.90
780;DHT22;373;49.342;8.146;2023-07-24T10:27:07;24.50;99.90
780;DHT22;373;49.342;8.146;2023-07-24T10:29:35;24.80;99.90
780;DHT22;373;49.342;8.146;2023-07-24T10:32:03;24.70;99.90
780;DHT22;373;49.342;8.146;2023-07-24T10:34:39;24.70;99.90
780;DHT22;373;49.342;8.146;2023-07-24T10:37:08;24.80;99.90
780;DHT22;373;49.342;8.146;2023-07-24T10:39:38;24.90;99.90
780;DHT22;373;49.342;8.146;2023-07-24T10:42:22;24.80;99.90
780;DHT22;373;49.342;8.146;2023-07-24T10:44:49;25.00;99.90
780;DHT22;373;49.342;8.146;2023-07-24T10:47:17;24.90;99.90
780;DHT22;373;49.342;8.146;2023-07-24T10:49:55;24.50;9.20
780;DHT22;373;49.342;8.146;2023-07-24T10:53:01;24.00;1.00
780;DHT22;373;49.342;8.146;2023-07-24T10:55:47;24.10;1.00
780;DHT22;373;49.342;8.146;2023-07-24T10:59:19;24.20;99.90
780;DHT22;373;49.342;8.146;2023-07-24T11:06:19;24.10;99.90
780;DHT22;373;49.342;8.146;2023-07-24T11:32:03;23.40;1.00
780;DHT22;373;49.342;8.146;2023-07-24T11:34:35;23.30;1.00
780;DHT22;373;49.342;8.146;2023-07-24T11:37:07;23.20;99.90
780;DHT22;373;49.342;8.146;2023-07-24T11:39:37;23.40;1.00
780;DHT22;373;49.342;8.146;2023-07-24T11:42:09;23.20;1.00
780;DHT22;373;49.342;8.146;2023-07-24T11:44:36;23.30;99.90
780;DHT22;373;49.342;8.146;2023-07-24T11:47:07;23.50;99.90
780;DHT22;373;49.342;8.146;2023-07-24T11:49:35;23.70;1.00
780;DHT22;373;49.342;8.146;2023-07-24T11:52:04;23.70;99.90
780;DHT22;373;49.342;8.146;2023-07-24T11:54:35;23.60;99.90
780;DHT22;373;49.342;8.146;2023-07-24T11:57:23;23.70;60.10
780;DHT22;373;49.342;8.146;2023-07-24T12:00:18;23.90;99.90
780;DHT22;373;49.342;8.146;2023-07-24T12:02:50;23.80;93.00
780;DHT22;373;49.342;8.146;2023-07-24T12:05:18;23.50;99.90
780;DHT22;373;49.342;8.146;2023-07-24T12:10:40;23.10;1.00
780;DHT22;373;49.342;8.146;2023-07-24T12:13:10;23.00;1.00
780;DHT22;373;49.342;8.146;2023-07-24T12:15:44;23.00;1.00
780;DHT22;373;49.342;8.146;2023-07-24T12:18:34;22.80;1.00
780;DHT22;373;49.342;8.146;2023-07-24T12:21:07;22.90;1.00
780;DHT22;373;49.342;8.146;2023-07-24T12:23:34;23.40;1.00
780;DHT22;373;49.342;8.146;2023-07-24T12:26:10;23.70;1.00
780;DHT22;373;49.342;8.146;2023-07-24T12:28:37;24.10;99.90
780;DHT22;373;49.342;8.146;2023-07-24T12:31:08;24.80;1.00
780;DHT22;373;49.342;8.146;2023-07-24T12:33:36;25.20;1.00
780;DHT22;373;49.342;8.146;2023-07-24T12:36:08;24.80;1.00
780;DHT22;373;49.342;8.146;2023-07-24T12:38:41;25.40;1.00
780;DHT22;373;49.342;8.146;2023-07-24T12:41:11;25.20;10.10
780;DHT22;373;49.342;8.146;2023-07-24T12:43:56;24.90;99.90
780;DHT22;373;49.342;8.146;2023-07-24T12:46:42;24.70;1.00
780;DHT22;373;49.342;8.146;2023-07-24T12:49:15;24.80;99.90
780;DHT22;373;49.342;8.146;2023-07-24T12:51:42;24.90;1.00
780;DHT22;373;49.342;8.146;2023-07-24T12:54:13;25.40;1.00
780;DHT22;373;49.342;8.146;2023-07-24T12:56:44;26.10;1.00
780;DHT22;373;49.342;8.146;2023-07-24T12:59:13;26.60;99.90
780;DHT22;373;49.342;8.146;2023-07-24T13:01:49;26.40;99.90
780;DHT22;373;49.342;8.146;2023-07-24T13:04:19;26.10;99.90
780;DHT22;373;49.342;8.146;2023-07-24T13:09:40;26.10;99.90
780;DHT22;373;49.342;8.146;2023-07-24T13:12:13;25.90;1.00
780;DHT22;373;49.342;8.146;2023-07-24T13:14:46;25.60;1.00
780;DHT22;373;49.342;8.146;2023-07-24T13:17:14;25.80;1.00
780;DHT22;373;49.342;8.146;2023-07-24T13:19:45;26.00;1.00
780;DHT22;373;49.342;8.146;2023-07-24T13:22:15;25.60;1.00
780;DHT22;373;49.342;8.146;2023-07-24T13:24:42;25.10;6.00
780;DHT22;373;49.342;8.146;2023-07-24T13:27:15;24.90;1.00
780;DHT22;373;49.342;8.146;2023-07-24T13:29:42;24.80;46.20
780;DHT22;373;49.342;8.146;2023-07-24T13:32:16;24.60;99.90
780;DHT22;373;49.342;8.146;2023-07-24T13:34:44;24.50;1.00
780;DHT22;373;49.342;8.146;2023-07-24T13:37:19;24.30;1.00
780;DHT22;373;49.342;8.146;2023-07-24T13:39:51;24.00;48.40
780;DHT22;373;49.342;8.146;2023-07-24T13:42:20;24.10;99.90
780;DHT22;373;49.342;8.146;2023-07-24T13:45:30;24.00;99.90
780;DHT22;373;49.342;8.146;2023-07-24T13:47:57;23.80;2.70
780;DHT22;373;49.342;8.146;2023-07-24T13:50:26;23.70;1.00
780;DHT22;373;49.342;8.146;2023-07-24T13:52:58;23.90;99.90
780;DHT22;373;49.342;8.146;2023-07-24T13:55:28;23.60;1.00
780;DHT22;373;49.342;8.146;2023-07-24T13:57:55;22.60;99.90
780;DHT22;373;49.342;8.146;2023-07-24T14:00:22;21.70;99.90
780;DHT22;373;49.342;8.146;2023-07-24T14:02:49;21.40;99.90
780;DHT22;373;49.342;8.146;2023-07-24T14:05:29;21.30;99.90
780;DHT22;373;49.342;8.146;2023-07-24T14:07:56;21.30;99.90
780;DHT22;373;49.342;8.146;2023-07-24T14:10:23;21.40;99.90
780;DHT22;373;49.342;8.146;2023-07-24T14:12:53;21.40;99.90
780;DHT22;373;49.342;8.146;2023-07-24T14:15:20;21.60;99.90
780;DHT22;373;49.342;8.146;2023-07-24T14:18:02;21.90;99.90
780;DHT22;373;49.342;8.146;2023-07-24T14:20:38;21.90;99.90
780;DHT22;373;49.342;8.146;2023-07-24T14:23:10;21.90;99.90
780;DHT22;373;49.342;8.146;2023-07-24T14:25:45;22.20;99.90
780;DHT22;373;49.342;8.146;2023-07-24T14:28:12;22.60;99.90
780;DHT22;373;49.342;8.146;2023-07-24T14:30:39;22.50;99.90
780;DHT22;373;49.342;8.146;2023-07-24T14:33:06;22.60;94.30
780;DHT22;373;49.342;8.146;2023-07-24T14:35:35;22.80;99.90
780;DHT22;373;49.342;8.146;2023-07-24T14:38:02;22.70;75.00
780;DHT22;373;49.342;8.146;2023-07-24T14:40:29;22.50;28.00
780;DHT22;373;49.342;8.146;2023-07-24T14:42:56;22.40;35.10
780;DHT22;373;49.342;8.146;2023-07-24T14:45:23;22.50;65.10
780;DHT22;373;49.342;8.146;2023-07-24T14:47:51;22.60;1.00
780;DHT22;373;49.342;8.146;2023-07-24T14:50:18;22.80;78.70
780;DHT22;373;49.342;8.146;2023-07-24T14:52:48;23.00;1.00
780;DHT22;373;49.342;8.146;2023-07-24T14:55:19;23.40;1.00
780;DHT22;373;49.342;8.146;2023-07-24T14:57:46;23.00;1.00
780;DHT22;373;49.342;8.146;2023-07-24T15:00:14;22.90;1.00
780;DHT22;373;49.342;8.146;2023-07-24T15:02:42;23.20;1.00
780;DHT22;373;49.342;8.146;2023-07-24T15:05:09;23.40;1.00
780;DHT22;373;49.342;8.146;2023-07-24T15:07:36;23.70;1.00
780;DHT22;373;49.342;8.146;2023-07-24T15:10:05;23.50;1.00
780;DHT22;373;49.342;8.146;2023-07-24T15:12:32;23.70;1.00
780;DHT22;373;49.342;8.146;2023-07-24T15:14:59;23.60;1.00
780;DHT22;373;49.342;8.146;2023-07-24T15:17:26;23.40;1.00
780;DHT22;373;49.342;8.146;2023-07-24T15:19:59;23.40;1.00
780;DHT22;373;49.342;8.146;2023-07-24T15:22:26;23.30;1.00
780;DHT22;373;49.342;8.146;2023-07-24T15:24:53;23.50;1.00
780;DHT22;373;49.342;8.146;2023-07-24T15:27:22;23.70;1.00
780;DHT22;373;49.342;8.146;2023-07-24T15:29:52;23.90;1.00
780;DHT22;373;49.342;8.146;2023-07-24T15:32:19;24.10;1.00
780;DHT22;373;49.342;8.146;2023-07-24T15:34:46;24.20;1.00
780;DHT22;373;49.342;8.146;2023-07-24T15:37:13;23.80;1.00
780;DHT22;373;49.342;8.146;2023-07-24T15:39:41;23.70;1.00
780;DHT22;373;49.342;8.146;2023-07-24T15:42:08;23.90;1.00
780;DHT22;373;49.342;8.146;2023-07-24T15:44:36;24.10;99.90
780;DHT22;373;49.342;8.146;2023-07-24T15:47:04;24.00;99.90
780;DHT22;373;49.342;8.146;2023-07-24T15:49:31;23.90;1.00
780;DHT22;373;49.342;8.146;2023-07-24T15:51:58;23.60;1.00
780;DHT22;373;49.342;8.146;2023-07-24T15:54:25;23.50;1.00
780;DHT22;373;49.342;8.146;2023-07-24T15:56:52;23.40;1.00
780;DHT22;373;49.342;8.146;2023-07-24T15:59:19;23.40;1.00
780;DHT22;373;49.342;8.146;2023-07-24T16:01:48;23.70;99.90
780;DHT22;373;49.342;8.146;2023-07-24T16:04:16;23.90;99.90
780;DHT22;373;49.342;8.146;2023-07-24T16:06:43;24.00;99.90
780;DHT22;373;49.342;8.146;2023-07-24T16:09:10;23.90;99.90
780;DHT22;373;49.342;8.146;2023-07-24T16:11:37;23.90;99.90
780;DHT22;373;49.342;8.146;2023-07-24T16:14:05;24.10;1.00
780;DHT22;373;49.342;8.146;2023-07-24T16:16:33;24.40;90.00
780;DHT22;373;49.342;8.146;2023-07-24T16:19:15;23.80;99.90
780;DHT22;373;49.342;8.146;2023-07-24T16:21:44;23.60;64.90
780;DHT22;373;49.342;8.146;2023-07-24T16:24:12;23.30;1.00
780;DHT22;373;49.342;8.146;2023-07-24T16:26:39;23.40;9.20
780;DHT22;373;49.342;8.146;2023-07-24T16:29:07;23.30;29.50
780;DHT22;373;49.342;8.146;2023-07-24T16:31:34;23.30;79.50
780;DHT22;373;49.342;8.146;2023-07-24T16:34:01;23.10;1.00
780;DHT22;373;49.342;8.146;2023-07-24T16:36:29;23.30;99.90
780;DHT22;373;49.342;8.146;2023-07-24T16:38:58;23.30;99.90
780;DHT22;373;49.342;8.146;2023-07-24T16:41:25;23.30;1.00
780;DHT22;373;49.342;8.146;2023-07-24T16:43:53;23.50;1.00
780;DHT22;373;49.342;8.146;2023-07-24T16:46:20;23.60;60.80
780;DHT22;373;49.342;8.146;2023-07-24T16:48:47;23.70;1.00
780;DHT22;373;49.342;8.146;2023-07-24T16:51:14;23.40;1.00
780;DHT22;373;49.342;8.146;2023-07-24T16:53:43;23.20;3.60
780;DHT22;373;49.342;8.146;2023-07-24T16:56:10;23.30;99.90
780;DHT22;373;49.342;8.146;2023-07-24T16:58:37;23.20;1.00
780;DHT22;373;49.342;8.146;2023-07-24T17:01:05;23.30;99.90
780;DHT22;373;49.342;8.146;2023-07-24T17:03:32;23.30;85.20
780;DHT22;373;49.342;8.146;2023-07-24T17:05:59;23.30;96.80
780;DHT22;373;49.342;8.146;2023-07-24T17:08:26;23.30;1.00
780;DHT22;373;49.342;8.146;2023-07-24T17:10:55;23.30;1.00
780;DHT22;373;49.342;8.146;2023-07-24T17:13:22;23.40;1.00
780;DHT22;373;49.342;8.146;2023-07-24T17:15:49;23.30;1.00
780;DHT22;373;49.342;8.146;2023-07-24T17:18:17;23.20;1.00
780;DHT22;373;49.342;8.146;2023-07-24T17:20:44;23.30;1.00
780;DHT22;373;49.342;8.146;2023-07-24T17:23:11;23.30;1.00
780;DHT22;373;49.342;8.146;2023-07-24T17:25:38;23.50;1.00
780;DHT22;373;49.342;8.146;2023-07-24T17:28:07;23.60;1.00
780;DHT22;373;49.342;8.146;2023-07-24T17:30:34;23.60;1.00
780;DHT22;373;49.342;8.146;2023-07-24T17:33:02;23.40;1.00
780;DHT22;373;49.342;8.146;2023-07-24T17:35:29;23.30;1.00
780;DHT22;373;49.342;8.146;2023-07-24T17:37:56;23.30;1.00
780;DHT22;373;49.342;8.146;2023-07-24T17:40:23;23.10;1.00
780;DHT22;373;49.342;8.146;2023-07-24T17:42:50;23.20;1.00
780;DHT22;373;49.342;8.146;2023-07-24T17:45:19;23.20;1.00
780;DHT22;373;49.342;8.146;2023-07-24T17:47:46;23.10;1.00
780;DHT22;373;49.342;8.146;2023-07-24T17:50:13;23.00;1.00
780;DHT22;373;49.342;8.146;2023-07-24T17:52:40;23.00;1.00
780;DHT22;373;49.342;8.146;2023-07-24T17:55:07;22.90;1.00
780;DHT22;373;49.342;8.146;2023-07-24T17:57:35;23.00;1.00
780;DHT22;373;49.342;8.146;2023-07-24T18:00:02;23.10;1.00
780;DHT22;373;49.342;8.146;2023-07-24T18:02:32;23.10;1.00
780;DHT22;373;49.342;8.146;2023-07-24T18:04:59;23.00;1.00
780;DHT22;373;49.342;8.146;2023-07-24T18:07:26;23.00;1.00
780;DHT22;373;49.342;8.146;2023-07-24T18:09:53;23.00;1.00
780;DHT22;373;49.342;8.146;2023-07-24T18:12:20;22.70;1.00
780;DHT22;373;49.342;8.146;2023-07-24T18:14:48;22.50;1.00
780;DHT22;373;49.342;8.146;2023-07-24T18:17:15;22.60;1.00
780;DHT22;373;49.342;8.146;2023-07-24T18:19:43;22.80;1.00
780;DHT22;373;49.342;8.146;2023-07-24T18:22:10;22.70;1.00
780;DHT22;373;49.342;8.146;2023-07-24T18:24:38;22.50;99.90
780;DHT22;373;49.342;8.146;2023-07-24T18:27:05;22.60;99.90
780;DHT22;373;49.342;8.146;2023-07-24T18:29:32;22.50;99.90
780;DHT22;373;49.342;8.146;2023-07-24T18:32:00;22.50;1.00
780;DHT22;373;49.342;8.146;2023-07-24T18:34:27;22.60;99.90
780;DHT22;373;49.342;8.146;2023-07-24T18:36:55;22.50;99.90
780;DHT22;373;49.342;8.146;2023-07-24T18:39:22;22.50;99.90
780;DHT22;373;49.342;8.146;2023-07-24T18:41:50;22.60;99.90
780;DHT22;373;49.342;8.146;2023-07-24T18:44:17;22.60;99.90
780;DHT22;373;49.342;8.146;2023-07-24T18:46:44;22.60;99.90
780;DHT22;373;49.342;8.146;2023-07-24T18:49:11;22.60;99.90
780;DHT22;373;49.342;8.146;2023-07-24T18:51:38;22.60;99.90
780;DHT22;373;49.342;8.146;2023-07-24T18:54:06;22.60;1.00
780;DHT22;373;49.342;8.146;2023-07-24T18:56:33;22.60;99.90
780;DHT22;373;49.342;8.146;2023-07-24T18:59:00;22.80;99.90
780;DHT22;373;49.342;8.146;2023-07-24T19:01:27;22.90;99.90
780;DHT22;373;49.342;8.146;2023-07-24T19:03:54;23.10;99.90
780;DHT22;373;49.342;8.146;2023-07-24T19:06:21;22.80;99.90
780;DHT22;373;49.342;8.146;2023-07-24T19:08:49;22.80;99.90
780;DHT22;373;49.342;8.146;2023-07-24T19:11:17;22.70;99.90
780;DHT22;373;49.342;8.146;2023-07-24T19:13:45;22.80;99.90
780;DHT22;373;49.342;8.146;2023-07-24T19:16:12;23.00;99.90
780;DHT22;373;49.342;8.146;2023-07-24T19:18:39;23.10;99.90
780;DHT22;373;49.342;8.146;2023-07-24T19:21:06;22.80;99.90
780;DHT22;373;49.342;8.146;2023-07-24T19:23:33;22.70;99.90
780;DHT22;373;49.342;8.146;2023-07-24T19:26:00;22.70;99.90
780;DHT22;373;49.342;8.146;2023-07-24T19:28:31;22.70;99.90
780;DHT22;373;49.342;8.146;2023-07-24T19:30:58;22.50;99.90
780;DHT22;373;49.342;8.146;2023-07-24T19:33:25;22.40;99.90
780;DHT22;373;49.342;8.146;2023-07-24T19:35:58;22.40;99.90
780;DHT22;373;49.342;8.146;2023-07-24T19:38:26;22.50;99.90
780;DHT22;373;49.342;8.146;2023-07-24T19:40:56;22.50;99.90
780;DHT22;373;49.342;8.146;2023-07-24T19:43:24;22.50;99.90
780;DHT22;373;49.342;8.146;2023-07-24T19:45:53;22.60;99.90
780;DHT22;373;49.342;8.146;2023-07-24T19:48:20;22.80;1.00
780;DHT22;373;49.342;8.146;2023-07-24T19:50:48;22.60;1.00
780;DHT22;373;49.342;8.146;2023-07-24T19:53:16;22.50;1.00